Time;durP1;ratioP1;P1;durP2;ratioP2;P2;SDS_P1;SDS_P2;PMS_P1;PMS_P2;Temp;Humidity;BMP_temperature;BMP_pressure;BME280_temperature;BME280_humidity;BME280_pressure;Samples;Min_cycle;Max_cycle;Signal;HPM_P1;HPM_P2
2024/03/24 00:01:30;;;;;;;0.60;0.20;;;5.70;99.90;;;;;;5126133;27;20426;-57
2024/03/24 00:03:57;;;;;;;0.40;0.20;;;5.70;99.90;;;;;;5123795;27;20431;-56
2024/03/24 00:06:23;;;;;;;0.40;0.20;;;5.60;99.90;;;;;;5122502;27;20410;-54
2024/03/24 00:08:52;;;;;;;0.50;0.20;;;5.50;99.90;;;;;;5124735;27;20420;-55
2024/03/24 00:11:19;;;;;;;0.45;0.20;;;5.70;99.90;;;;;;5126237;27;20479;-53
2024/03/24 00:13:46;;;;;;;1.63;0.30;;;5.70;99.90;;;;;;5121632;27;20530;-56
2024/03/24 00:16:12;;;;;;;0.50;0.20;;;5.60;99.90;;;;;;5121508;27;20432;-56
2024/03/24 00:18:39;;;;;;;0.40;0.20;;;5.40;99.90;;;;;;5120285;27;20868;-58
2024/03/24 00:21:06;;;;;;;0.70;0.20;;;5.20;99.90;;;;;;5125392;27;20729;-58
2024/03/24 00:23:33;;;;;;;0.40;0.20;;;5.10;99.90;;;;;;5124138;27;20769;-57
2024/03/24 00:25:59;;;;;;;0.60;0.20;;;5.10;99.90;;;;;;5126805;27;20418;-57
2024/03/24 00:28:28;;;;;;;0.80;0.20;;;5.10;99.90;;;;;;5125064;27;20859;-56
2024/03/24 00:30:54;;;;;;;0.60;0.20;;;5.10;99.90;;;;;;5125581;27;20802;-57
2024/03/24 00:33:21;;;;;;;0.50;0.20;;;5.30;99.90;;;;;;5122739;27;20406;-56
2024/03/24 00:35:47;;;;;;;0.65;0.20;;;5.40;99.90;;;;;;5122408;27;20436;-57
2024/03/24 00:38:14;;;;;;;0.52;0.20;;;5.50;99.90;;;;;;5123829;27;20694;-57
2024/03/24 00:40:40;;;;;;;0.40;0.20;;;5.50;99.90;;;;;;5124453;27;20841;-56
2024/03/24 00:43:07;;;;;;;0.90;0.20;;;5.50;99.90;;;;;;5123899;27;20414;-56
2024/03/24 00:45:35;;;;;;;0.70;0.20;;;5.50;99.90;;;;;;5126115;27;20423;-57
2024/03/24 00:48:02;;;;;;;0.40;0.20;;;5.40;99.90;;;;;;5124645;27;20749;-54
2024/03/24 00:50:27;;;;;;;0.43;0.20;;;5.30;99.90;;;;;;5126407;27;20410;-56
2024/03/24 00:52:55;;;;;;;0.30;0.20;;;5.20;99.90;;;;;;5124562;27;20481;-55
2024/03/24 00:55:21;;;;;;;0.50;0.20;;;5.10;99.90;;;;;;5127677;27;20429;-56
2024/03/24 00:57:48;;;;;;;0.50;0.20;;;5.30;99.90;;;;;;5123019;27;20420;-57
2024/03/24 01:00:14;;;;;;;0.40;0.20;;;5.50;99.90;;;;;;5124870;27;20825;-57
2024/03/24 01:02:43;;;;;;;0.70;0.20;;;5.30;99.90;;;;;;5120393;28;20682;-57
2024/03/24 01:05:09;;;;;;;0.40;0.20;;;5.10;99.90;;;;;;5123728;28;20426;-57
2024/03/24 01:07:36;;;;;;;1.05;0.20;;;5.40;99.90;;;;;;5121345;28;20407;-54
2024/03/24 01:10:03;;;;;;;1.02;0.20;;;5.50;99.90;;;;;;5116029;28;20441;-56
2024/03/24 01:12:30;;;;;;;0.90;0.20;;;5.60;99.90;;;;;;5111585;28;20519;-57
2024/03/24 01:14:56;;;;;;;0.50;0.20;;;5.60;99.90;;;;;;5114326;28;20427;-56
2024/03/24 01:17:23;;;;;;;0.50;0.20;;;5.50;99.90;;;;;;5113638;28;20424;-57
2024/03/24 01:19:51;;;;;;;0.50;0.10;;;5.50;99.90;;;;;;5110081;28;20704;-55
2024/03/24 01:22:18;;;;;;;0.60;0.20;;;5.50;99.90;;;;;;5112877;28;20428;-57
2024/03/24 01:24:44;;;;;;;0.50;0.20;;;5.50;99.90;;;;;;5113156;28;20424;-58
2024/03/24 01:27:11;;;;;;;0.50;0.20;;;5.40;99.90;;;;;;5115705;28;20483;-57
2024/03/24 01:29:37;;;;;;;0.30;0.20;;;5.30;99.90;;;;;;5115866;28;20439;-56
2024/03/24 01:32:04;;;;;;;0.40;0.20;;;5.50;99.90;;;;;;5114971;28;20424;-57
2024/03/24 01:34:31;;;;;;;0.60;0.20;;;5.50;99.90;;;;;;5115938;28;20473;-57
2024/03/24 01:37:00;;;;;;;0.30;0.20;;;5.40;99.90;;;;;;5112782;28;20477;-57
2024/03/24 01:39:26;;;;;;;0.50;0.20;;;5.40;99.90;;;;;;5112351;28;20428;-58
2024/03/24 01:41:53;;;;;;;0.40;0.20;;;5.20;99.90;;;;;;5114914;28;20424;-57
2024/03/24 01:44:19;;;;;;;0.30;0.10;;;5.50;99.90;;;;;;5113966;28;20845;-58
2024/03/24 01:46:46;;;;;;;0.50;0.20;;;5.50;99.90;;;;;;5113392;28;20408;-58
2024/03/24 01:49:12;;;;;;;0.38;0.20;;;5.50;99.90;;;;;;5115179;28;20528;-58
2024/03/24 01:51:39;;;;;;;0.32;0.20;;;5.50;99.90;;;;;;5114961;28;20445;-58
2024/03/24 01:54:08;;;;;;;0.50;0.20;;;5.40;99.90;;;;;;5103608;28;20511;-57
2024/03/24 01:56:35;;;;;;;1.00;0.10;;;5.70;99.90;;;;;;5115946;28;20428;-58
2024/03/24 01:59:02;;;;;;;0.47;0.20;;;5.80;99.90;;;;;;5111416;28;20425;-59
2024/03/24 02:01:29;;;;;;;0.40;0.20;;;5.70;99.90;;;;;;5114416;28;20679;-56
2024/03/24 02:03:55;;;;;;;0.40;0.20;;;5.50;99.90;;;;;;5114124;28;20485;-59
2024/03/24 02:06:22;;;;;;;0.30;0.10;;;5.40;99.90;;;;;;5113932;28;20779;-57
2024/03/24 02:08:48;;;;;;;0.40;0.10;;;5.70;99.90;;;;;;5117997;27;20434;-57
2024/03/24 02:11:16;;;;;;;0.98;0.20;;;6.00;99.90;;;;;;5130009;27;20426;-57
2024/03/24 02:13:43;;;;;;;0.30;0.10;;;6.00;99.90;;;;;;5127534;27;20446;-55
2024/03/24 02:16:10;;;;;;;0.40;0.10;;;6.20;99.90;;;;;;5127102;27;20493;-57
2024/03/24 02:18:39;;;;;;;0.30;0.10;;;6.30;99.90;;;;;;5128852;27;20689;-57
2024/03/24 02:21:06;;;;;;;0.50;0.20;;;6.30;99.90;;;;;;5127669;27;20424;-58
2024/03/24 02:23:33;;;;;;;0.40;0.20;;;6.10;99.90;;;;;;5127523;27;20427;-57
2024/03/24 02:26:01;;;;;;;0.40;0.10;;;6.00;99.90;;;;;;5129552;27;20480;-57
2024/03/24 02:28:27;;;;;;;0.47;0.20;;;6.00;99.90;;;;;;5126996;27;20473;-57
2024/03/24 02:30:54;;;;;;;0.40;0.20;;;5.90;99.90;;;;;;5128257;27;20420;-57
2024/03/24 02:33:20;;;;;;;0.60;0.10;;;5.80;99.90;;;;;;5130035;27;20426;-57
2024/03/24 02:35:48;;;;;;;0.30;0.10;;;5.60;99.90;;;;;;5126229;27;20429;-57
2024/03/24 02:38:15;;;;;;;0.60;0.20;;;5.60;99.90;;;;;;5130047;27;20447;-57
2024/03/24 02:40:43;;;;;;;0.40;0.10;;;5.60;99.90;;;;;;5127739;27;20418;-56
2024/03/24 02:43:10;;;;;;;0.50;0.20;;;5.60;99.90;;;;;;5129591;27;20699;-57
2024/03/24 02:45:36;;;;;;;0.40;0.20;;;5.70;99.90;;;;;;5127196;27;20676;-56
2024/03/24 02:48:03;;;;;;;0.40;0.10;;;5.70;99.90;;;;;;5128512;27;20482;-57
2024/03/24 02:50:29;;;;;;;0.40;0.20;;;5.50;99.90;;;;;;5126285;27;20698;-57
2024/03/24 02:52:56;;;;;;;0.70;0.20;;;5.40;99.90;;;;;;5128460;27;20434;-56
2024/03/24 02:55:25;;;;;;;0.40;0.10;;;5.30;99.90;;;;;;5125275;27;20763;-56
2024/03/24 02:57:53;;;;;;;0.50;0.10;;;5.20;99.90;;;;;;5128353;27;20422;-57
2024/03/24 03:00:20;;;;;;;0.40;0.10;;;5.30;99.90;;;;;;5124908;27;20424;-57
2024/03/24 03:02:47;;;;;;;0.30;0.10;;;5.20;99.90;;;;;;5128293;27;20422;-56
2024/03/24 03:05:13;;;;;;;0.50;0.17;;;5.00;99.90;;;;;;5133211;27;20662;-56
2024/03/24 03:07:40;;;;;;;0.47;0.10;;;5.00;99.90;;;;;;5139326;27;20417;-56
2024/03/24 03:10:08;;;;;;;0.40;0.10;;;5.00;99.90;;;;;;5139003;27;20442;-55
2024/03/24 03:12:35;;;;;;;0.30;0.10;;;4.90;99.90;;;;;;5134397;27;20872;-55
2024/03/24 03:15:04;;;;;;;0.32;0.10;;;4.80;99.90;;;;;;5124212;27;20529;-56
2024/03/24 03:17:31;;;;;;;0.43;0.10;;;4.80;99.90;;;;;;5126184;27;20477;-57
2024/03/24 03:19:57;;;;;;;0.55;0.10;;;4.80;99.90;;;;;;5127138;27;20420;-57
2024/03/24 03:22:24;;;;;;;0.40;0.20;;;4.80;99.90;;;;;;5120213;27;20420;-56
2024/03/24 03:24:50;;;;;;;0.40;0.20;;;4.80;99.90;;;;;;5128159;27;20940;-56
2024/03/24 03:27:17;;;;;;;0.30;0.10;;;4.70;99.90;;;;;;5131898;27;20422;-56
2024/03/24 03:29:43;;;;;;;0.30;0.10;;;4.60;99.90;;;;;;5139187;27;20557;-56
2024/03/24 03:32:11;;;;;;;0.40;0.13;;;4.50;99.90;;;;;;5138929;27;20530;-56
2024/03/24 03:34:37;;;;;;;0.38;0.10;;;4.60;99.90;;;;;;5139151;27;20441;-56
2024/03/24 03:37:04;;;;;;;1.20;0.20;;;4.70;99.90;;;;;;5130792;27;20427;-55
2024/03/24 03:39:31;;;;;;;0.40;0.10;;;4.70;99.90;;;;;;5125452;27;20424;-56
2024/03/24 03:41:59;;;;;;;0.50;0.20;;;4.70;99.90;;;;;;5125111;27;20560;-54
2024/03/24 03:44:25;;;;;;;0.40;0.10;;;4.70;99.90;;;;;;5126989;27;20416;-55
2024/03/24 03:46:52;;;;;;;0.40;0.20;;;4.70;99.90;;;;;;5125980;27;20428;-56
2024/03/24 03:49:19;;;;;;;0.40;0.20;;;4.70;99.90;;;;;;5126665;27;20420;-56
2024/03/24 03:51:53;;;;;;;0.80;0.20;;;4.80;99.90;;;;;;5127407;27;20772;-55
2024/03/24 03:54:21;;;;;;;0.80;0.17;;;4.80;99.90;;;;;;5126711;27;20419;-56
2024/03/24 03:56:48;;;;;;;0.30;0.10;;;4.90;99.90;;;;;;5125273;27;20484;-56
2024/03/24 03:59:14;;;;;;;0.57;0.20;;;4.90;99.90;;;;;;5126971;27;20878;-55
2024/03/24 04:01:41;;;;;;;0.50;0.10;;;4.90;99.90;;;;;;5125430;27;20716;-55
2024/03/24 04:04:08;;;;;;;0.30;0.10;;;4.90;99.90;;;;;;5126495;27;20428;-56
2024/03/24 04:06:37;;;;;;;0.30;0.10;;;5.00;99.90;;;;;;5125879;27;20507;-53
2024/03/24 04:09:03;;;;;;;1.10;0.20;;;5.10;99.90;;;;;;5118620;27;20489;-56
2024/03/24 04:11:30;;;;;;;0.40;0.10;;;5.10;99.90;;;;;;5115087;28;20416;-54
2024/03/24 04:13:56;;;;;;;0.70;0.20;;;5.10;99.90;;;;;;5115530;28;20421;-56
2024/03/24 04:16:23;;;;;;;2.10;0.10;;;5.10;99.90;;;;;;5116108;28;21123;-56
2024/03/24 04:18:49;;;;;;;0.30;0.10;;;5.10;99.90;;;;;;5116493;28;20500;-55
2024/03/24 04:21:17;;;;;;;0.40;0.20;;;5.00;99.90;;;;;;5116639;28;20428;-56
2024/03/24 04:23:44;;;;;;;0.40;0.10;;;5.10;99.90;;;;;;5116682;28;20424;-55
2024/03/24 04:26:11;;;;;;;0.40;0.20;;;5.10;99.90;;;;;;5116589;28;20806;-55
2024/03/24 04:28:37;;;;;;;0.47;0.20;;;5.00;99.90;;;;;;5116317;28;20428;-55
2024/03/24 04:31:04;;;;;;;0.30;0.10;;;5.10;99.90;;;;;;5116357;28;20563;-56
2024/03/24 04:33:31;;;;;;;0.60;0.20;;;5.00;99.90;;;;;;5113307;28;20810;-54
2024/03/24 04:35:58;;;;;;;1.30;0.20;;;5.00;99.90;;;;;;5115686;28;20476;-54
2024/03/24 04:38:24;;;;;;;0.50;0.10;;;5.00;99.90;;;;;;5117011;28;20442;-54
2024/03/24 04:40:52;;;;;;;0.80;0.20;;;5.20;99.90;;;;;;5115309;28;20428;-56
2024/03/24 04:43:20;;;;;;;0.40;0.10;;;5.40;99.90;;;;;;5115569;28;20875;-55
2024/03/24 04:45:48;;;;;;;0.30;0.10;;;5.50;99.90;;;;;;5115481;28;20711;-56
2024/03/24 04:48:14;;;;;;;0.90;0.20;;;5.80;99.90;;;;;;5115447;28;20503;-54
2024/03/24 04:50:40;;;;;;;2.50;0.20;;;5.70;99.90;;;;;;5116294;28;20420;-54
2024/03/24 04:53:07;;;;;;;1.10;0.10;;;5.70;99.90;;;;;;5116611;28;20899;-55
2024/03/24 04:55:33;;;;;;;0.50;0.10;;;5.70;99.90;;;;;;5116506;28;20424;-54
2024/03/24 04:58:03;;;;;;;0.60;0.20;;;5.70;99.90;;;;;;5115815;28;20427;-56
2024/03/24 05:00:29;;;;;;;0.30;0.10;;;5.60;99.90;;;;;;5114940;28;20428;-56
2024/03/24 05:02:56;;;;;;;0.30;0.10;;;5.60;99.90;;;;;;5114944;28;20431;-55
2024/03/24 05:05:25;;;;;;;0.40;0.10;;;5.50;99.90;;;;;;5115003;28;20419;-55
2024/03/24 05:07:52;;;;;;;0.30;0.10;;;5.40;99.90;;;;;;5111903;28;20514;-57
2024/03/24 05:10:20;;;;;;;0.40;0.10;;;5.20;99.90;;;;;;5115024;28;20423;-55
2024/03/24 05:12:47;;;;;;;1.87;0.10;;;5.10;99.90;;;;;;5114350;28;20559;-57
2024/03/24 05:15:14;;;;;;;0.30;0.10;;;4.90;99.90;;;;;;5114565;28;20960;-54
2024/03/24 05:17:42;;;;;;;0.30;0.10;;;4.90;99.90;;;;;;5115036;28;20428;-55
2024/03/24 05:20:09;;;;;;;0.38;0.20;;;4.90;99.90;;;;;;5115722;28;20463;-55
2024/03/24 05:22:36;;;;;;;0.30;0.10;;;4.80;99.90;;;;;;5113159;28;20467;-57
2024/03/24 05:25:04;;;;;;;0.40;0.10;;;4.80;99.90;;;;;;5116518;28;20527;-55
2024/03/24 05:27:31;;;;;;;0.40;0.10;;;4.70;99.90;;;;;;5115658;28;20424;-53
2024/03/24 05:29:57;;;;;;;0.40;0.20;;;4.70;99.90;;;;;;5116204;28;20671;-51
2024/03/24 05:32:25;;;;;;;0.30;0.10;;;4.80;99.90;;;;;;5116662;28;20466;-52
2024/03/24 05:34:51;;;;;;;0.63;0.10;;;4.80;99.90;;;;;;5116491;28;20420;-52
2024/03/24 05:37:18;;;;;;;0.70;0.10;;;4.70;99.90;;;;;;5116921;28;20428;-54
2024/03/24 05:39:47;;;;;;;0.40;0.20;;;4.80;99.90;;;;;;5116865;28;20428;-54
2024/03/24 05:42:14;;;;;;;0.80;0.10;;;4.90;99.90;;;;;;5115394;28;20530;-55
2024/03/24 05:44:40;;;;;;;0.30;0.10;;;4.80;99.90;;;;;;5116789;28;20420;-56
2024/03/24 05:47:07;;;;;;;1.00;0.20;;;4.70;99.90;;;;;;5118694;28;20859;-55
2024/03/24 05:49:35;;;;;;;0.50;0.10;;;4.80;99.90;;;;;;5118125;28;20424;-55
2024/03/24 05:52:01;;;;;;;0.85;0.20;;;4.90;99.90;;;;;;5118751;28;20943;-55
2024/03/24 05:54:27;;;;;;;0.40;0.10;;;4.80;99.90;;;;;;5118216;28;20428;-55
2024/03/24 05:56:54;;;;;;;0.60;0.20;;;4.80;99.90;;;;;;5118553;28;20424;-55
2024/03/24 05:59:20;;;;;;;0.30;0.10;;;4.70;99.90;;;;;;5118301;28;20408;-56
2024/03/24 06:01:48;;;;;;;0.30;0.10;;;5.00;99.90;;;;;;5119201;28;20420;-56
2024/03/24 06:04:14;;;;;;;0.35;0.10;;;5.10;99.90;;;;;;5120126;28;20848;-55
2024/03/24 06:06:42;;;;;;;0.40;0.15;;;5.20;99.90;;;;;;5119807;28;20510;-56
2024/03/24 06:09:09;;;;;;;0.30;0.15;;;5.40;99.90;;;;;;5127966;27;20483;-55
2024/03/24 06:11:36;;;;;;;0.30;0.10;;;5.40;99.90;;;;;;5129255;27;20802;-55
2024/03/24 06:14:02;;;;;;;0.30;0.10;;;5.40;99.90;;;;;;5129236;27;20492;-56
2024/03/24 06:16:29;;;;;;;0.50;0.20;;;5.40;99.90;;;;;;5137375;27;20426;-55
2024/03/24 06:18:55;;;;;;;0.30;0.20;;;5.50;99.90;;;;;;5136302;27;20816;-55
2024/03/24 06:21:22;;;;;;;0.40;0.10;;;5.60;99.90;;;;;;5124331;27;20420;-55
2024/03/24 06:23:53;;;;;;;0.40;0.10;;;5.90;99.90;;;;;;5135032;27;20832;-56
2024/03/24 06:26:20;;;;;;;0.40;0.20;;;5.80;99.90;;;;;;5140939;27;20483;-54
2024/03/24 06:28:46;;;;;;;0.40;0.10;;;5.70;99.90;;;;;;5136915;27;20480;-55
2024/03/24 06:31:14;;;;;;;0.60;0.10;;;5.70;99.90;;;;;;5133045;27;20426;-56
2024/03/24 06:33:40;;;;;;;0.30;0.10;;;5.60;99.90;;;;;;5129946;27;20479;-55
2024/03/24 06:36:08;;;;;;;0.30;0.10;;;5.70;99.90;;;;;;5136769;27;20426;-53
2024/03/24 06:38:35;;;;;;;0.47;0.17;;;5.80;99.90;;;;;;5128097;27;20710;-55
2024/03/24 06:41:04;;;;;;;0.50;0.20;;;5.80;99.90;;;;;;5128980;27;20418;-56
2024/03/24 06:43:36;;;;;;;0.40;0.10;;;5.70;99.90;;;;;;5130461;27;20422;-56
2024/03/24 06:46:04;;;;;;;0.40;0.20;;;5.90;99.90;;;;;;5130737;27;20424;-55
2024/03/24 06:48:30;;;;;;;0.30;0.10;;;6.10;99.90;;;;;;5126423;27;20826;-55
2024/03/24 06:50:58;;;;;;;1.10;0.20;;;6.30;99.90;;;;;;5128683;27;20419;-54
2024/03/24 06:53:23;;;;;;;1.10;0.20;;;6.50;99.90;;;;;;5127187;27;20853;-55
2024/03/24 06:55:51;;;;;;;0.40;0.10;;;6.50;99.90;;;;;;5128316;27;20458;-56
2024/03/24 06:58:19;;;;;;;0.40;0.20;;;6.60;99.90;;;;;;5125578;27;20434;-55
2024/03/24 07:00:46;;;;;;;0.47;0.20;;;7.00;99.90;;;;;;5125342;27;20442;-55
2024/03/24 07:03:12;;;;;;;0.80;0.20;;;6.60;99.90;;;;;;5124049;27;20424;-57
2024/03/24 07:05:39;;;;;;;1.00;0.20;;;6.60;99.90;;;;;;5123214;27;20495;-53
2024/03/24 07:08:05;;;;;;;0.30;0.10;;;6.70;99.90;;;;;;5135263;27;20433;-56
2024/03/24 07:10:32;;;;;;;0.40;0.20;;;6.60;99.90;;;;;;5137748;27;20708;-56
2024/03/24 07:12:58;;;;;;;0.40;0.20;;;6.70;1.00;;;;;;5137916;27;20838;-54
2024/03/24 07:15:27;;;;;;;0.50;0.20;;;6.80;99.90;;;;;;5137902;27;20426;-57
2024/03/24 07:17:52;;;;;;;0.30;0.20;;;6.70;1.00;;;;;;5137008;27;20747;-56
2024/03/24 07:20:20;;;;;;;1.10;0.20;;;6.70;1.00;;;;;;5139017;27;20411;-57
2024/03/24 07:22:45;;;;;;;0.30;0.10;;;6.70;1.00;;;;;;5138035;27;20504;-52
2024/03/24 07:25:14;;;;;;;0.43;0.20;;;6.70;1.00;;;;;;5138144;27;20819;-56
2024/03/24 07:27:40;;;;;;;0.40;0.13;;;6.70;1.00;;;;;;5137884;27;20414;-56
2024/03/24 07:30:08;;;;;;;0.50;0.20;;;6.90;1.00;;;;;;5138405;27;20513;-58
2024/03/24 07:32:36;;;;;;;0.40;0.20;;;6.80;99.90;;;;;;5137586;27;20415;-58
2024/03/24 07:35:04;;;;;;;0.35;0.20;;;6.80;99.90;;;;;;5138488;27;20418;-56
2024/03/24 07:37:31;;;;;;;0.40;0.20;;;7.00;99.90;;;;;;5137406;27;20431;-56
2024/03/24 07:39:58;;;;;;;0.50;0.20;;;7.10;1.00;;;;;;5137360;27;20422;-55
2024/03/24 07:42:24;;;;;;;0.40;0.20;;;7.20;1.00;;;;;;5136272;27;20434;-55
2024/03/24 07:44:51;;;;;;;0.60;0.20;;;7.20;1.00;;;;;;5136538;27;21033;-56
2024/03/24 07:47:18;;;;;;;1.20;0.20;;;7.10;99.90;;;;;;5137271;27;20442;-56
2024/03/24 07:49:47;;;;;;;1.40;0.20;;;7.10;99.90;;;;;;5137584;27;20476;-55
2024/03/24 07:52:13;;;;;;;0.80;0.20;;;7.10;1.00;;;;;;5138059;27;20486;-56
2024/03/24 07:54:40;;;;;;;0.70;0.20;;;7.20;99.90;;;;;;5138190;27;20418;-54
2024/03/24 07:57:07;;;;;;;0.40;0.20;;;7.30;1.00;;;;;;5136764;27;20836;-55
2024/03/24 07:59:34;;;;;;;0.60;0.20;;;7.50;1.00;;;;;;5136648;27;20449;-53
2024/03/24 08:02:01;;;;;;;0.40;0.20;;;7.40;1.00;;;;;;5137105;27;20471;-54
2024/03/24 08:04:28;;;;;;;0.50;0.20;;;7.50;1.00;;;;;;5137289;27;20815;-54
2024/03/24 08:06:55;;;;;;;0.40;0.10;;;7.30;1.00;;;;;;5135980;27;20418;-55
2024/03/24 08:09:23;;;;;;;0.30;0.10;;;7.30;1.00;;;;;;5127382;27;20873;-54
2024/03/24 08:11:49;;;;;;;0.40;0.20;;;7.40;1.00;;;;;;5116913;28;20810;-52
2024/03/24 08:14:16;;;;;;;0.40;0.20;;;7.40;1.00;;;;;;5117326;27;20419;-53
2024/03/24 08:16:42;;;;;;;0.50;0.20;;;7.50;1.00;;;;;;5117427;27;20431;-54
2024/03/24 08:19:09;;;;;;;0.50;0.20;;;7.40;1.00;;;;;;5119320;27;20492;-51
2024/03/24 08:21:36;;;;;;;0.40;0.20;;;7.50;1.00;;;;;;5137444;27;20422;-54
2024/03/24 08:24:04;;;;;;;0.40;0.20;;;7.60;1.00;;;;;;5138365;27;20482;-52
2024/03/24 08:26:30;;;;;;;0.50;0.20;;;7.90;1.00;;;;;;5137832;27;20419;-53
2024/03/24 08:28:57;;;;;;;0.95;0.20;;;8.40;1.00;;;;;;5119603;27;20469;-53
2024/03/24 08:31:24;;;;;;;0.40;0.20;;;8.50;1.00;;;;;;5124767;27;20426;-50
2024/03/24 08:33:51;;;;;;;0.40;0.20;;;8.50;99.90;;;;;;5123800;27;20519;-52
2024/03/24 08:36:17;;;;;;;0.40;0.20;;;8.70;1.00;;;;;;5134825;27;20446;-49
2024/03/24 08:38:44;;;;;;;0.40;0.15;;;8.70;99.90;;;;;;5116524;28;20660;-56
2024/03/24 08:41:13;;;;;;;0.40;0.10;;;8.60;99.90;;;;;;5116566;28;20424;-54
2024/03/24 08:43:40;;;;;;;0.90;0.20;;;8.90;99.90;;;;;;5115100;28;20427;-56
2024/03/24 08:46:06;;;;;;;0.40;0.20;;;8.90;99.90;;;;;;5126168;27;20426;-57
2024/03/24 08:48:33;;;;;;;0.40;0.20;;;8.80;99.90;;;;;;5133668;27;20437;-56
2024/03/24 08:50:59;;;;;;;0.40;0.20;;;8.70;99.90;;;;;;5124446;27;20494;-55
2024/03/24 08:53:26;;;;;;;0.50;0.20;;;9.00;99.90;;;;;;5130875;27;20415;-56
2024/03/24 08:55:52;;;;;;;0.60;0.20;;;8.90;99.90;;;;;;5125055;27;20427;-54
2024/03/24 08:58:20;;;;;;;0.40;0.20;;;9.00;99.90;;;;;;5122416;27;20453;-57
2024/03/24 09:00:51;;;;;;;0.50;0.20;;;8.90;99.90;;;;;;5135932;27;20522;-54
2024/03/24 09:03:18;;;;;;;0.60;0.20;;;8.90;99.90;;;;;;5134223;27;20421;-51
2024/03/24 09:05:44;;;;;;;1.10;0.20;;;8.90;99.90;;;;;;5124509;27;20420;-53
2024/03/24 09:08:11;;;;;;;2.67;0.20;;;9.10;99.90;;;;;;5126714;28;20816;-53
2024/03/24 09:10:37;;;;;;;0.70;0.20;;;9.20;99.90;;;;;;5115314;28;20421;-57
2024/03/24 09:13:05;;;;;;;0.52;0.20;;;9.20;99.90;;;;;;5098882;28;20703;-54
2024/03/24 09:15:32;;;;;;;0.60;0.20;;;8.90;59.40;;;;;;5113214;28;20416;-55
2024/03/24 09:18:00;;;;;;;0.40;0.20;;;8.80;96.80;;;;;;5113687;28;20449;-57
2024/03/24 09:20:26;;;;;;;0.57;0.30;;;8.80;99.90;;;;;;5118203;28;20416;-53
2024/03/24 09:22:53;;;;;;;0.50;0.20;;;8.40;94.30;;;;;;5118509;27;20776;-56
2024/03/24 09:25:18;;;;;;;0.67;0.30;;;8.30;99.90;;;;;;5118765;28;20863;-59
2024/03/24 09:27:48;;;;;;;0.70;0.30;;;8.10;61.10;;;;;;5122871;27;20423;-58
2024/03/24 09:30:14;;;;;;;1.90;0.20;;;8.20;91.40;;;;;;5119434;28;20448;-56
2024/03/24 09:32:43;;;;;;;1.00;0.30;;;8.40;79.10;;;;;;5118167;28;20415;-58
2024/03/24 09:35:09;;;;;;;0.50;0.22;;;8.50;99.90;;;;;;5117703;28;20420;-57
2024/03/24 09:37:36;;;;;;;0.80;0.20;;;8.70;99.90;;;;;;5119973;28;20813;-58
2024/03/24 09:40:04;;;;;;;1.20;0.30;;;8.80;99.90;;;;;;5118102;28;20428;-58
2024/03/24 09:42:32;;;;;;;1.60;0.20;;;8.90;93.70;;;;;;5118110;28;20424;-56
2024/03/24 09:45:00;;;;;;;0.60;0.30;;;9.10;99.90;;;;;;5118601;28;20420;-60
2024/03/24 09:47:28;;;;;;;0.80;0.20;;;9.20;99.90;;;;;;5118500;28;20404;-58
2024/03/24 09:49:58;;;;;;;0.65;0.30;;;9.40;74.80;;;;;;5118190;28;20470;-59
2024/03/24 09:52:29;;;;;;;2.20;0.30;;;9.40;61.10;;;;;;5118075;28;20813;-59
2024/03/24 09:54:56;;;;;;;0.50;0.20;;;9.40;58.70;;;;;;5119016;28;20419;-59
2024/03/24 09:57:25;;;;;;;0.70;0.30;;;9.10;45.00;;;;;;5118662;28;20428;-58
2024/03/24 09:59:53;;;;;;;0.80;0.20;;;9.10;64.50;;;;;;5119069;28;20416;-59
2024/03/24 10:02:21;;;;;;;0.50;0.30;;;9.10;52.80;;;;;;5119393;28;20683;-58
2024/03/24 10:04:47;;;;;;;2.00;0.40;;;9.00;58.30;;;;;;5118779;28;20424;-60
2024/03/24 10:07:16;;;;;;;0.50;0.30;;;8.90;99.90;;;;;;5117640;28;20472;-56
2024/03/24 10:09:42;;;;;;;1.60;0.30;;;8.70;69.80;;;;;;5130208;27;20430;-57
2024/03/24 10:12:14;;;;;;;0.50;0.20;;;8.70;86.90;;;;;;5138252;27;20418;-60
2024/03/24 10:14:40;;;;;;;2.40;0.30;;;8.70;99.90;;;;;;5119523;28;20422;-58
2024/03/24 10:17:16;;;;;;;0.60;0.30;;;8.70;99.90;;;;;;5119471;28;20477;-59
2024/03/24 10:19:45;;;;;;;2.70;0.30;;;8.80;99.90;;;;;;5119967;28;20431;-57
2024/03/24 10:22:13;;;;;;;0.70;0.30;;;8.80;99.90;;;;;;5121000;27;20434;-58
2024/03/24 10:24:43;;;;;;;0.60;0.30;;;9.20;99.90;;;;;;5120164;27;20514;-57
2024/03/24 10:27:12;;;;;;;0.60;0.30;;;9.10;62.80;;;;;;5119748;27;20873;-59
2024/03/24 10:29:38;;;;;;;1.30;0.30;;;9.10;99.90;;;;;;5115410;28;20773;-60
2024/03/24 10:32:06;;;;;;;0.70;0.30;;;9.20;99.90;;;;;;5119261;27;20407;-59
2024/03/24 10:34:33;;;;;;;0.50;0.20;;;9.40;99.90;;;;;;5118530;28;20536;-59
2024/03/24 10:37:00;;;;;;;0.50;0.30;;;9.40;99.90;;;;;;5131402;27;20827;-55
2024/03/24 10:39:26;;;;;;;0.95;0.30;;;9.40;69.60;;;;;;5138207;27;20443;-59
2024/03/24 10:41:55;;;;;;;0.70;0.30;;;9.40;94.70;;;;;;5138580;27;20468;-58
2024/03/24 10:44:25;;;;;;;0.70;0.30;;;9.90;73.10;;;;;;5138394;27;20816;-58
2024/03/24 10:46:55;;;;;;;0.80;0.30;;;9.90;67.00;;;;;;5138858;27;20422;-59
2024/03/24 10:49:24;;;;;;;0.65;0.25;;;9.80;55.90;;;;;;5138609;27;20419;-57
2024/03/24 10:51:52;;;;;;;0.60;0.30;;;10.10;57.20;;;;;;5139445;27;20445;-57
2024/03/24 10:54:19;;;;;;;0.70;0.30;;;10.40;28.00;;;;;;5139395;27;20476;-57
2024/03/24 10:56:47;;;;;;;0.60;0.30;;;10.50;17.90;;;;;;5139697;27;20410;-59
2024/03/24 10:59:15;;;;;;;0.60;0.40;;;10.50;21.00;;;;;;5137902;27;20839;-59
2024/03/24 11:01:43;;;;;;;1.00;0.30;;;10.70;1.00;;;;;;5137630;27;20418;-57
2024/03/24 11:04:09;;;;;;;0.70;0.30;;;10.30;59.60;;;;;;5138616;27;20423;-59
2024/03/24 11:06:38;;;;;;;0.80;0.30;;;10.50;99.90;;;;;;5138924;27;20422;-59
2024/03/24 11:09:05;;;;;;;0.80;0.30;;;10.60;19.50;;;;;;5136488;27;20812;-59
2024/03/24 11:11:33;;;;;;;0.60;0.30;;;10.90;99.90;;;;;;5137440;27;20509;-59
2024/03/24 11:14:01;;;;;;;0.98;0.30;;;11.00;99.90;;;;;;5138915;27;20459;-59
2024/03/24 11:16:30;;;;;;;0.90;0.30;;;10.60;99.90;;;;;;5138941;27;20422;-60
2024/03/24 11:19:04;;;;;;;0.60;0.30;;;9.80;99.90;;;;;;5138818;27;20457;-60
2024/03/24 11:21:34;;;;;;;0.50;0.20;;;10.20;99.90;;;;;;5139394;27;20429;-60
2024/03/24 11:24:00;;;;;;;1.80;0.30;;;10.50;99.90;;;;;;5139528;27;20422;-58
2024/03/24 11:26:29;;;;;;;0.60;0.30;;;10.30;99.90;;;;;;5138592;27;20511;-60
2024/03/24 11:28:55;;;;;;;0.90;0.30;;;9.80;99.90;;;;;;5138331;27;20466;-60
2024/03/24 11:31:36;;;;;;;1.10;0.30;;;9.50;99.90;;;;;;5138788;27;20418;-60
2024/03/24 11:34:07;;;;;;;1.00;0.25;;;9.00;99.90;;;;;;5138400;27;20426;-60
2024/03/24 11:36:37;;;;;;;0.70;0.30;;;9.30;97.50;;;;;;5138413;27;20509;-58
2024/03/24 11:39:06;;;;;;;1.20;0.30;;;9.40;99.90;;;;;;5136554;27;20567;-58
2024/03/24 11:41:35;;;;;;;0.52;0.30;;;9.10;99.90;;;;;;5136458;27;20523;-58
2024/03/24 11:44:02;;;;;;;0.50;0.30;;;9.20;99.90;;;;;;5137358;27;20454;-57
2024/03/24 11:46:30;;;;;;;0.80;0.30;;;9.40;99.90;;;;;;5137437;27;20426;-59
2024/03/24 11:48:58;;;;;;;0.50;0.30;;;9.20;99.90;;;;;;5137204;27;20414;-58
2024/03/24 11:51:26;;;;;;;2.20;0.30;;;9.30;99.90;;;;;;5136697;27;20422;-59
2024/03/24 11:53:54;;;;;;;0.70;0.30;;;9.40;99.90;;;;;;5137628;27;20480;-58
2024/03/24 11:56:21;;;;;;;1.30;0.30;;;9.70;99.90;;;;;;5138772;27;20476;-58
2024/03/24 11:58:52;;;;;;;0.60;0.30;;;9.90;93.50;;;;;;5135567;27;20701;-58
2024/03/24 12:01:19;;;;;;;1.40;0.30;;;9.90;71.00;;;;;;5136672;27;20422;-58
2024/03/24 12:03:46;;;;;;;1.00;0.20;;;9.90;26.90;;;;;;5137447;27;20712;-58
2024/03/24 12:06:15;;;;;;;0.60;0.30;;;10.10;57.90;;;;;;5134047;27;20454;-58
2024/03/24 12:08:42;;;;;;;0.70;0.20;;;9.90;21.10;;;;;;5128622;27;20814;-58
2024/03/24 12:11:09;;;;;;;1.40;0.30;;;9.70;41.60;;;;;;5119764;27;20477;-58
2024/03/24 12:13:36;;;;;;;0.70;0.30;;;9.60;57.90;;;;;;5117180;28;20848;-56
2024/03/24 12:16:03;;;;;;;0.50;0.20;;;9.50;50.90;;;;;;5121096;27;20488;-58
2024/03/24 12:18:29;;;;;;;0.90;0.30;;;9.20;92.80;;;;;;5123853;27;20450;-58
2024/03/24 12:20:56;;;;;;;0.80;0.30;;;9.30;99.90;;;;;;5132978;27;20483;-58
2024/03/24 12:23:25;;;;;;;0.80;0.28;;;9.20;99.90;;;;;;5137235;27;20410;-59
2024/03/24 12:25:54;;;;;;;0.70;0.30;;;9.00;99.90;;;;;;5126300;27;20514;-58
2024/03/24 12:28:20;;;;;;;0.50;0.30;;;8.90;99.90;;;;;;5121632;27;20755;-59
2024/03/24 12:30:52;;;;;;;0.65;0.20;;;9.00;99.90;;;;;;5123292;27;20439;-59
2024/03/24 12:33:19;;;;;;;1.10;0.30;;;8.90;99.90;;;;;;5125897;27;20831;-60
2024/03/24 12:35:47;;;;;;;0.40;0.20;;;8.80;99.90;;;;;;5129921;27;20414;-60
2024/03/24 12:38:13;;;;;;;0.60;0.30;;;8.70;1.00;;;;;;5117957;27;20420;-60
2024/03/24 12:40:50;;;;;;;0.63;0.28;;;8.60;1.00;;;;;;5128085;27;20816;-60
2024/03/24 12:43:16;;;;;;;0.57;0.20;;;8.50;1.00;;;;;;5138177;27;20481;-61
2024/03/24 12:45:50;;;;;;;0.50;0.30;;;8.70;1.00;;;;;;5134748;27;20517;-60
2024/03/24 12:48:17;;;;;;;0.63;0.30;;;8.80;1.00;;;;;;5125441;27;20416;-61
2024/03/24 12:50:44;;;;;;;0.60;0.30;;;9.10;1.00;;;;;;5116872;28;20432;-60
2024/03/24 12:53:23;;;;;;;0.60;0.20;;;9.30;1.00;;;;;;5124722;27;20422;-60
2024/03/24 12:55:54;;;;;;;0.50;0.20;;;9.50;1.00;;;;;;5131606;27;20941;-62
2024/03/24 12:58:22;;;;;;;1.70;0.30;;;9.60;99.90;;;;;;5134337;27;20494;-60